Time;durP1;ratioP1;P1;durP2;ratioP2;P2;SDS_P1;SDS_P2;PMS_P1;PMS_P2;Temp;Humidity;BMP_temperature;BMP_pressure;BME280_temperature;BME280_humidity;BME280_pressure;Samples;Min_cycle;Max_cycle;Signal;HPM_P1;HPM_P2
2023/04/07 00:02:11;;;;;;;;;;;7.40;99.90;;;;;;5020221;28;20584;-69
2023/04/07 00:04:36;;;;;;;;;;;7.30;99.90;;;;;;5021674;28;20261;-68
2023/04/07 00:07:02;;;;;;;;;;;7.30;99.90;;;;;;5037922;28;19932;-69
2023/04/07 00:09:27;;;;;;;;;;;7.30;99.90;;;;;;5021523;28;19921;-68
2023/04/07 00:11:53;;;;;;;;;;;7.30;99.90;;;;;;5020526;28;19927;-69
2023/04/07 00:14:19;;;;;;;;;;;7.30;99.90;;;;;;5021113;28;19925;-69
2023/04/07 00:16:44;;;;;;;;;;;7.50;99.90;;;;;;5039258;28;20369;-69
2023/04/07 00:19:10;;;;;;;;;;;7.50;99.90;;;;;;5021034;28;20251;-68
2023/04/07 00:21:35;;;;;;;;;;;7.70;99.90;;;;;;5038059;28;19925;-68
2023/04/07 00:24:01;;;;;;;;;;;7.50;99.90;;;;;;5020826;28;20331;-69
2023/04/07 00:26:30;;;;;;;;;;;7.50;99.90;;;;;;5038787;28;19928;-68
2023/04/07 00:28:56;;;;;;;;;;;7.50;99.90;;;;;;5037678;28;19995;-69
2023/04/07 00:31:22;;;;;;;;;;;7.50;99.90;;;;;;5034571;28;19951;-69
2023/04/07 00:33:48;;;;;;;;;;;7.30;99.90;;;;;;5032264;28;20013;-71
2023/04/07 00:36:16;;;;;;;;;;;7.40;99.90;;;;;;5015343;28;19931;-70
2023/04/07 00:38:45;;;;;;;;;;;7.40;99.90;;;;;;5017820;28;20288;-70
2023/04/07 00:41:10;;;;;;;;;;;7.40;99.90;;;;;;5017113;28;19925;-71
2023/04/07 00:43:36;;;;;;;;;;;7.80;99.90;;;;;;5017335;28;19940;-71
2023/04/07 00:46:01;;;;;;;;;;;7.50;99.90;;;;;;5017871;28;20329;-71
2023/04/07 00:48:27;;;;;;;;;;;7.70;99.90;;;;;;5017374;28;19928;-71
2023/04/07 00:50:53;;;;;;;;;;;7.30;99.90;;;;;;5017160;28;20003;-71
2023/04/07 00:53:21;;;;;;;;;;;7.30;99.90;;;;;;5017032;28;19921;-71
2023/04/07 00:55:47;;;;;;;;;;;7.40;99.90;;;;;;5017471;28;19921;-71
2023/04/07 00:58:12;;;;;;;;;;;7.30;99.90;;;;;;5016849;28;20295;-71
2023/04/07 01:00:44;;;;;;;;;;;7.30;99.90;;;;;;5013570;28;20027;-71
2023/04/07 01:03:15;;;;;;;;;;;7.30;99.90;;;;;;5017145;28;20032;-71
2023/04/07 01:05:59;;;;;;;;;;;7.30;99.90;;;;;;5017693;28;19929;-70
2023/04/07 01:08:41;;;;;;;;;;;7.40;99.90;;;;;;5017576;28;19921;-71
2023/04/07 01:11:20;;;;;;;;;;;7.30;99.90;;;;;;5016743;28;19921;-70
2023/04/07 01:13:49;;;;;;;;;;;7.30;99.90;;;;;;5035113;28;19967;-71
2023/04/07 01:16:34;;;;;;;;;;;7.30;99.90;;;;;;5015847;28;20365;-71
2023/04/07 01:19:23;;;;;;;;;;;7.30;99.90;;;;;;5034215;28;19920;-70
2023/04/07 01:21:51;;;;;;;;;;;7.30;99.90;;;;;;5008819;28;19925;-71
2023/04/07 01:24:16;;;;;;;;;;;7.30;99.90;;;;;;5034918;28;19925;-71
2023/04/07 01:26:46;;;;;;;;;;;7.90;99.90;;;;;;5034605;28;19989;-70
2023/04/07 01:29:25;;;;;;;;;;;7.60;99.90;;;;;;5034417;28;19932;-70
2023/04/07 01:31:53;;;;;;;;;;;7.30;99.90;;;;;;5015178;28;19921;-71
2023/04/07 01:34:20;;;;;;;;;;;7.40;99.90;;;;;;4997616;28;19988;-70
2023/04/07 01:36:45;;;;;;;;;;;7.30;99.90;;;;;;4997267;28;19968;-71
2023/04/07 01:39:12;;;;;;;;;;;7.30;99.90;;;;;;5013778;28;19996;-71
2023/04/07 01:41:38;;;;;;;;;;;7.40;99.90;;;;;;5014549;28;19921;-70
2023/04/07 01:44:05;;;;;;;;;;;7.60;99.90;;;;;;4996760;28;19979;-71
2023/04/07 01:46:31;;;;;;;;;;;7.50;99.90;;;;;;4996584;28;20296;-69
2023/04/07 01:48:57;;;;;;;;;;;8.00;99.90;;;;;;4996517;28;19925;-70
2023/04/07 01:51:23;;;;;;;;;;;7.40;99.90;;;;;;5014460;28;19917;-70
2023/04/07 01:53:48;;;;;;;;;;;7.40;99.90;;;;;;5014041;28;19927;-70
2023/04/07 01:56:17;;;;;;;;;;;7.40;99.90;;;;;;4996862;28;19925;-70
2023/04/07 01:58:42;;;;;;;;;;;7.50;99.90;;;;;;5014525;28;19925;-70
2023/04/07 02:01:11;;;;;;;;;;;7.40;99.90;;;;;;5019150;28;19921;-71
2023/04/07 02:03:43;;;;;;;;;;;7.50;99.90;;;;;;5033465;28;20381;-70
2023/04/07 02:06:11;;;;;;;;;;;7.40;99.90;;;;;;5033729;28;19921;-70
2023/04/07 02:08:40;;;;;;;;;;;7.50;99.90;;;;;;5015585;28;19928;-70
2023/04/07 02:11:06;;;;;;;;;;;7.40;99.90;;;;;;5015866;28;20269;-71
2023/04/07 02:13:33;;;;;;;;;;;7.50;99.90;;;;;;5033335;28;19920;-70
2023/04/07 02:16:00;;;;;;;;;;;7.50;99.90;;;;;;5014588;28;19921;-70
2023/04/07 02:18:29;;;;;;;;;;;7.50;99.90;;;;;;5033970;28;20424;-70
2023/04/07 02:20:55;;;;;;;;;;;7.50;99.90;;;;;;5033030;28;19925;-70
2023/04/07 02:23:21;;;;;;;;;;;7.50;99.90;;;;;;5015942;28;19944;-70
2023/04/07 02:25:46;;;;;;;;;;;7.50;99.90;;;;;;5016055;28;19924;-70
2023/04/07 02:28:12;;;;;;;;;;;7.60;99.90;;;;;;5014816;28;20319;-69
2023/04/07 02:30:39;;;;;;;;;;;7.60;99.90;;;;;;5015360;28;19921;-70
2023/04/07 02:33:04;;;;;;;;;;;8.00;99.90;;;;;;5031541;28;19921;-70
2023/04/07 02:35:30;;;;;;;;;;;7.60;99.90;;;;;;5033403;28;19968;-70
2023/04/07 02:37:56;;;;;;;;;;;7.70;99.90;;;;;;5015676;28;20015;-70
2023/04/07 02:40:21;;;;;;;;;;;7.60;99.90;;;;;;5033254;28;19921;-70
2023/04/07 02:42:47;;;;;;;;;;;7.60;99.90;;;;;;5032550;28;19956;-70
2023/04/07 02:45:12;;;;;;;;;;;8.00;99.90;;;;;;5015314;28;20321;-70
2023/04/07 02:47:39;;;;;;;;;;;7.60;99.90;;;;;;5033285;28;19975;-70
2023/04/07 02:50:05;;;;;;;;;;;7.60;99.90;;;;;;5032795;28;19967;-70
2023/04/07 02:52:31;;;;;;;;;;;7.60;99.90;;;;;;5001848;28;19969;-70
2023/04/07 02:54:56;;;;;;;;;;;7.60;99.90;;;;;;5012852;28;19929;-70
2023/04/07 02:57:22;;;;;;;;;;;7.60;99.90;;;;;;4995491;28;19944;-70
2023/04/07 02:59:47;;;;;;;;;;;7.60;99.90;;;;;;5013568;28;19924;-70
2023/04/07 03:02:13;;;;;;;;;;;7.70;99.90;;;;;;4996790;28;20364;-70
2023/04/07 03:04:38;;;;;;;;;;;7.60;99.90;;;;;;4995474;28;20351;-70
2023/04/07 03:07:07;;;;;;;;;;;7.60;99.90;;;;;;5013194;28;19923;-70
2023/04/07 03:09:32;;;;;;;;;;;7.90;99.90;;;;;;5013295;28;20284;-70
2023/04/07 03:11:58;;;;;;;;;;;7.60;99.90;;;;;;4995179;28;19996;-70
2023/04/07 03:14:24;;;;;;;;;;;7.70;99.90;;;;;;4995850;28;20424;-70
2023/04/07 03:16:49;;;;;;;;;;;7.70;99.90;;;;;;5013453;28;20364;-70
2023/04/07 03:19:15;;;;;;;;;;;7.70;99.90;;;;;;5032266;28;19927;-70
2023/04/07 03:21:46;;;;;;;;;;;7.80;99.90;;;;;;5015256;28;20387;-70
2023/04/07 03:24:15;;;;;;;;;;;9.20;99.90;;;;;;5031938;28;20691;-70
2023/04/07 03:26:43;;;;;;;;;;;7.80;99.90;;;;;;5015531;28;20020;-70
2023/04/07 03:29:09;;;;;;;;;;;7.70;99.90;;;;;;5032791;28;19929;-70
2023/04/07 03:31:36;;;;;;;;;;;7.80;99.90;;;;;;5014524;28;19983;-70
2023/04/07 03:34:02;;;;;;;;;;;7.80;99.90;;;;;;5012832;28;19983;-70
2023/04/07 03:36:28;;;;;;;;;;;7.70;99.90;;;;;;5013117;28;20364;-70
2023/04/07 03:38:53;;;;;;;;;;;7.90;99.90;;;;;;5012177;28;19968;-71
2023/04/07 03:41:19;;;;;;;;;;;7.80;99.90;;;;;;4995311;28;19932;-70
2023/04/07 03:43:45;;;;;;;;;;;7.80;99.90;;;;;;5011944;28;19921;-70
2023/04/07 03:46:11;;;;;;;;;;;7.80;99.90;;;;;;5013995;28;19931;-70
2023/04/07 03:48:36;;;;;;;;;;;7.90;99.90;;;;;;5020476;28;19927;-70
2023/04/07 03:51:02;;;;;;;;;;;7.80;99.90;;;;;;5012366;28;20332;-70
2023/04/07 03:53:27;;;;;;;;;;;7.80;99.90;;;;;;5004416;28;19974;-70
2023/04/07 03:55:53;;;;;;;;;;;7.70;99.90;;;;;;5014732;28;19921;-70
2023/04/07 03:58:18;;;;;;;;;;;7.70;99.90;;;;;;5014692;28;19917;-71
2023/04/07 04:00:44;;;;;;;;;;;7.80;99.90;;;;;;5023547;28;19957;-70
2023/04/07 04:03:10;;;;;;;;;;;7.80;99.90;;;;;;5008765;28;19928;-70
2023/04/07 04:05:35;;;;;;;;;;;7.80;99.90;;;;;;5023791;28;19921;-70
2023/04/07 04:08:01;;;;;;;;;;;7.70;99.90;;;;;;5010060;28;19917;-69
2023/04/07 04:10:26;;;;;;;;;;;7.80;99.90;;;;;;4998752;28;19921;-70
2023/04/07 04:12:55;;;;;;;;;;;8.30;99.90;;;;;;5023868;28;20015;-70
2023/04/07 04:15:21;;;;;;;;;;;8.10;99.90;;;;;;5035629;28;19928;-70
2023/04/07 04:17:46;;;;;;;;;;;7.80;99.90;;;;;;5036292;28;20327;-70
2023/04/07 04:20:12;;;;;;;;;;;7.90;99.90;;;;;;5035058;28;19921;-70
2023/04/07 04:22:37;;;;;;;;;;;7.80;99.90;;;;;;5018703;28;20266;-70
2023/04/07 04:25:03;;;;;;;;;;;7.80;99.90;;;;;;5017778;28;19964;-71
2023/04/07 04:27:29;;;;;;;;;;;7.90;99.90;;;;;;5034893;28;20304;-70
2023/04/07 04:29:54;;;;;;;;;;;7.80;99.90;;;;;;5035649;28;19921;-71
2023/04/07 04:32:20;;;;;;;;;;;7.90;99.90;;;;;;5035688;28;19927;-69
2023/04/07 04:34:46;;;;;;;;;;;8.70;99.90;;;;;;5017894;28;20024;-70
2023/04/07 04:37:11;;;;;;;;;;;8.00;99.90;;;;;;5035427;28;19921;-69
2023/04/07 04:39:37;;;;;;;;;;;7.80;99.90;;;;;;5015556;28;19921;-69
2023/04/07 04:42:03;;;;;;;;;;;7.70;99.90;;;;;;5026839;28;19931;-69
2023/04/07 04:44:29;;;;;;;;;;;7.70;99.90;;;;;;5004353;28;19976;-70
2023/04/07 04:46:55;;;;;;;;;;;7.70;99.90;;;;;;5020840;28;20024;-69
2023/04/07 04:49:20;;;;;;;;;;;7.60;99.90;;;;;;5008189;28;20067;-70
2023/04/07 04:51:45;;;;;;;;;;;7.70;99.90;;;;;;5005065;28;19964;-70
2023/04/07 04:54:11;;;;;;;;;;;7.60;99.90;;;;;;5023990;28;20360;-70
2023/04/07 04:56:37;;;;;;;;;;;7.60;99.90;;;;;;5003765;28;20059;-71
2023/04/07 04:59:03;;;;;;;;;;;7.60;99.90;;;;;;5034937;28;20051;-71
2023/04/07 05:01:29;;;;;;;;;;;7.60;99.90;;;;;;5020562;28;19947;-71
2023/04/07 05:03:55;;;;;;;;;;;7.60;99.90;;;;;;4997231;28;19921;-71
2023/04/07 05:06:23;;;;;;;;;;;7.50;99.90;;;;;;5015325;28;19928;-70
2023/04/07 05:08:49;;;;;;;;;;;7.60;99.90;;;;;;4997842;28;20365;-70
2023/04/07 05:11:15;;;;;;;;;;;7.60;99.90;;;;;;5019899;28;19921;-70
2023/04/07 05:13:40;;;;;;;;;;;7.50;99.90;;;;;;5015168;28;19922;-70
2023/04/07 05:16:06;;;;;;;;;;;7.50;99.90;;;;;;4996302;28;19964;-70
2023/04/07 05:18:32;;;;;;;;;;;7.50;99.90;;;;;;5014516;28;19922;-70
2023/04/07 05:20:57;;;;;;;;;;;7.60;99.90;;;;;;5014728;28;19976;-70
2023/04/07 05:23:23;;;;;;;;;;;7.50;99.90;;;;;;5014962;28;20003;-71
2023/04/07 05:25:49;;;;;;;;;;;7.60;99.90;;;;;;5003004;28;20380;-69
2023/04/07 05:28:14;;;;;;;;;;;7.50;99.90;;;;;;5016428;28;19970;-70
2023/04/07 05:30:40;;;;;;;;;;;7.50;99.90;;;;;;5016213;28;19921;-69
2023/04/07 05:33:06;;;;;;;;;;;7.60;99.90;;;;;;5034284;28;19928;-70
2023/04/07 05:35:31;;;;;;;;;;;7.50;99.90;;;;;;5006137;28;19921;-70
2023/04/07 05:37:57;;;;;;;;;;;7.50;99.90;;;;;;5033588;28;20369;-70
2023/04/07 05:40:23;;;;;;;;;;;7.50;99.90;;;;;;5015424;28;19946;-71
2023/04/07 05:42:48;;;;;;;;;;;7.50;99.90;;;;;;5016600;28;19928;-70
2023/04/07 05:45:14;;;;;;;;;;;7.50;99.90;;;;;;5014171;28;20017;-70
2023/04/07 05:47:40;;;;;;;;;;;7.50;99.90;;;;;;4996923;28;19921;-69
2023/04/07 05:50:06;;;;;;;;;;;7.60;99.90;;;;;;5014325;28;19928;-70
2023/04/07 05:52:31;;;;;;;;;;;7.50;99.90;;;;;;5014052;28;19955;-70
2023/04/07 05:54:57;;;;;;;;;;;7.50;99.90;;;;;;4996848;28;19928;-69
2023/04/07 05:57:22;;;;;;;;;;;7.50;99.90;;;;;;5030617;28;19917;-70
2023/04/07 05:59:48;;;;;;;;;;;7.50;99.90;;;;;;5033917;28;19928;-70
2023/04/07 06:02:13;;;;;;;;;;;7.50;99.90;;;;;;5016082;28;19925;-70
2023/04/07 06:04:39;;;;;;;;;;;7.50;99.90;;;;;;5033967;28;19925;-70
2023/04/07 06:07:05;;;;;;;;;;;7.50;99.90;;;;;;5000948;28;19987;-71
2023/04/07 06:09:34;;;;;;;;;;;7.60;99.90;;;;;;5008857;28;19929;-70
2023/04/07 06:12:00;;;;;;;;;;;7.50;99.90;;;;;;5023303;28;19968;-71
2023/04/07 06:14:26;;;;;;;;;;;7.50;99.90;;;;;;5004058;28;19996;-70
2023/04/07 06:16:51;;;;;;;;;;;7.50;99.90;;;;;;5018161;28;20353;-70
2023/04/07 06:19:17;;;;;;;;;;;7.50;99.90;;;;;;5024486;28;19921;-69
2023/04/07 06:21:42;;;;;;;;;;;7.50;99.90;;;;;;5018394;28;19921;-70
2023/04/07 06:24:08;;;;;;;;;;;7.50;99.90;;;;;;5013877;28;19971;-70
2023/04/07 06:26:33;;;;;;;;;;;7.50;99.90;;;;;;5013691;28;19967;-69
2023/04/07 06:28:59;;;;;;;;;;;7.50;99.90;;;;;;4994380;28;20368;-70
2023/04/07 06:31:25;;;;;;;;;;;7.40;99.90;;;;;;5005474;28;19928;-69
2023/04/07 06:33:51;;;;;;;;;;;7.50;99.90;;;;;;5022753;28;19963;-71
2023/04/07 06:36:17;;;;;;;;;;;7.50;99.90;;;;;;5021579;28;19972;-71
2023/04/07 06:38:43;;;;;;;;;;;7.50;99.90;;;;;;5025040;28;19964;-70
2023/04/07 06:41:15;;;;;;;;;;;7.50;99.90;;;;;;5032610;28;20019;-69
2023/04/07 06:43:41;;;;;;;;;;;8.10;99.90;;;;;;5011676;28;20285;-69
2023/04/07 06:46:06;;;;;;;;;;;7.40;99.90;;;;;;4996011;28;19921;-69
2023/04/07 06:48:32;;;;;;;;;;;7.40;99.90;;;;;;5012947;28;20333;-68
2023/04/07 06:50:57;;;;;;;;;;;7.40;99.90;;;;;;4995452;28;19936;-69
2023/04/07 06:53:23;;;;;;;;;;;7.40;99.90;;;;;;4995434;28;19922;-69
2023/04/07 06:55:48;;;;;;;;;;;7.40;99.90;;;;;;4995600;28;19960;-71
2023/04/07 06:58:14;;;;;;;;;;;7.40;99.90;;;;;;5013598;28;19980;-70
2023/04/07 07:00:40;;;;;;;;;;;7.40;99.90;;;;;;5018516;28;20395;-70
2023/04/07 07:03:05;;;;;;;;;;;7.50;99.90;;;;;;5002593;28;20011;-70
2023/04/07 07:05:31;;;;;;;;;;;7.50;99.90;;;;;;5025264;28;19929;-69
2023/04/07 07:07:56;;;;;;;;;;;7.50;99.90;;;;;;5001349;28;19921;-69
2023/04/07 07:10:22;;;;;;;;;;;7.60;99.90;;;;;;5004172;28;19992;-69
2023/04/07 07:12:48;;;;;;;;;;;7.50;99.90;;;;;;5021797;28;19983;-70
2023/04/07 07:15:17;;;;;;;;;;;7.50;99.90;;;;;;5019305;28;19921;-70
2023/04/07 07:17:43;;;;;;;;;;;7.50;99.90;;;;;;5016975;28;19922;-70
2023/04/07 07:20:08;;;;;;;;;;;7.70;99.90;;;;;;5006817;28;19968;-69
2023/04/07 07:22:34;;;;;;;;;;;7.60;99.90;;;;;;5012497;28;19979;-69
2023/04/07 07:25:00;;;;;;;;;;;7.50;99.90;;;;;;5012093;28;20004;-70
2023/04/07 07:27:25;;;;;;;;;;;7.60;99.90;;;;;;5013891;28;19921;-70
2023/04/07 07:29:51;;;;;;;;;;;7.70;99.90;;;;;;5001212;28;20688;-69
2023/04/07 07:32:17;;;;;;;;;;;7.50;99.90;;;;;;5023331;28;19921;-69
2023/04/07 07:34:42;;;;;;;;;;;7.50;99.90;;;;;;5012827;28;19972;-69
2023/04/07 07:37:11;;;;;;;;;;;7.60;99.90;;;;;;5026811;28;20302;-69
2023/04/07 07:39:36;;;;;;;;;;;7.60;99.90;;;;;;5021024;28;19929;-70
2023/04/07 07:42:02;;;;;;;;;;;7.60;99.90;;;;;;5003440;28;19947;-71
2023/04/07 07:44:27;;;;;;;;;;;7.60;99.90;;;;;;5016384;28;19925;-69
2023/04/07 07:46:53;;;;;;;;;;;7.60;99.90;;;;;;5005332;28;19922;-70
2023/04/07 07:49:18;;;;;;;;;;;7.70;99.90;;;;;;5010780;28;19932;-70
2023/04/07 07:51:45;;;;;;;;;;;7.60;99.90;;;;;;5035833;28;20258;-70
2023/04/07 07:54:11;;;;;;;;;;;7.70;99.90;;;;;;5017767;28;20283;-68
2023/04/07 07:56:36;;;;;;;;;;;7.70;99.90;;;;;;5036038;28;19921;-69
2023/04/07 07:59:02;;;;;;;;;;;7.70;99.90;;;;;;5032773;28;19968;-71
2023/04/07 08:01:31;;;;;;;;;;;7.90;99.90;;;;;;4999251;28;19921;-68
2023/04/07 08:03:56;;;;;;;;;;;7.80;99.90;;;;;;5005216;28;19927;-71
2023/04/07 08:06:22;;;;;;;;;;;7.80;99.90;;;;;;5035916;28;20266;-72
2023/04/07 08:08:47;;;;;;;;;;;8.00;99.90;;;;;;5036238;28;20391;-70
2023/04/07 08:11:13;;;;;;;;;;;7.80;99.90;;;;;;4999203;28;19964;-71
2023/04/07 08:13:39;;;;;;;;;;;7.90;99.90;;;;;;4997949;28;19936;-73
2023/04/07 08:16:05;;;;;;;;;;;7.90;99.90;;;;;;5016429;28;19928;-72
2023/04/07 08:18:31;;;;;;;;;;;7.90;99.90;;;;;;5016546;28;19928;-71
2023/04/07 08:20:56;;;;;;;;;;;8.30;99.90;;;;;;4998066;28;20012;-73
2023/04/07 08:23:25;;;;;;;;;;;7.90;99.90;;;;;;5016215;28;20270;-72
2023/04/07 08:25:51;;;;;;;;;;;7.90;99.90;;;;;;5014971;28;19928;-75
2023/04/07 08:28:17;;;;;;;;;;;8.00;99.90;;;;;;5014423;28;20284;-79
2023/04/07 08:30:45;;;;;;;;;;;8.00;99.90;;;;;;5013275;28;20396;-72
2023/04/07 08:33:11;;;;;;;;;;;8.00;99.90;;;;;;5017314;28;19925;-72
2023/04/07 08:35:39;;;;;;;;;;;8.00;99.90;;;;;;5035074;28;19974;-76
2023/04/07 08:38:06;;;;;;;;;;;8.00;99.90;;;;;;5017288;28;19928;-73
2023/04/07 08:40:32;;;;;;;;;;;8.00;99.90;;;;;;5013061;28;19940;-71
2023/04/07 08:43:01;;;;;;;;;;;8.10;99.90;;;;;;4997741;28;20281;-71
2023/04/07 08:45:27;;;;;;;;;;;8.20;99.90;;;;;;5028127;28;20316;-75
2023/04/07 08:47:55;;;;;;;;;;;8.10;99.90;;;;;;5033482;28;19925;-74
2023/04/07 08:50:23;;;;;;;;;;;8.10;99.90;;;;;;5021107;28;19924;-76
2023/04/07 08:52:59;;;;;;;;;;;8.20;99.90;;;;;;5016393;28;19928;-76
2023/04/07 08:55:25;;;;;;;;;;;8.10;99.90;;;;;;5023504;28;19922;-72
2023/04/07 08:57:51;;;;;;;;;;;8.40;99.90;;;;;;5015312;28;19937;-73
2023/04/07 09:00:17;;;;;;;;;;;8.20;99.90;;;;;;4997743;28;20345;-73
2023/04/07 09:02:47;;;;;;;;;;;8.10;99.90;;;;;;5015085;28;19928;-73
2023/04/07 09:05:15;;;;;;;;;;;8.20;99.90;;;;;;5014980;28;20377;-77
2023/04/07 09:07:45;;;;;;;;;;;8.70;99.90;;;;;;5009496;28;19920;-73
2023/04/07 09:10:10;;;;;;;;;;;8.30;99.90;;;;;;5016543;28;19983;-74
2023/04/07 09:12:37;;;;;;;;;;;8.30;99.90;;;;;;5017221;28;19924;-72
2023/04/07 09:15:03;;;;;;;;;;;9.50;99.90;;;;;;5034843;28;20433;-75
2023/04/07 09:17:31;;;;;;;;;;;8.50;99.90;;;;;;5026345;28;19949;-72
2023/04/07 09:19:58;;;;;;;;;;;8.40;99.90;;;;;;5002149;28;20870;-72
2023/04/07 09:22:44;;;;;;;;;;;8.50;99.90;;;;;;5030143;28;19921;-72
2023/04/07 09:25:10;;;;;;;;;;;8.50;99.90;;;;;;5010078;28;19925;-72
2023/04/07 09:27:36;;;;;;;;;;;8.60;99.90;;;;;;5018015;28;19971;-72
2023/04/07 09:30:12;;;;;;;;;;;8.60;99.90;;;;;;5012507;28;20339;-73
2023/04/07 09:32:37;;;;;;;;;;;8.70;99.90;;;;;;5010998;28;19991;-71
2023/04/07 09:35:03;;;;;;;;;;;8.80;99.90;;;;;;5016561;28;20681;-72
2023/04/07 09:37:29;;;;;;;;;;;8.80;99.90;;;;;;5014930;28;20065;-71
2023/04/07 09:39:54;;;;;;;;;;;8.80;99.90;;;;;;5018273;28;19951;-70
2023/04/07 09:42:20;;;;;;;;;;;8.80;99.90;;;;;;5025663;28;19928;-70
2023/04/07 09:44:46;;;;;;;;;;;8.90;99.90;;;;;;5011780;28;19921;-71
2023/04/07 09:47:11;;;;;;;;;;;8.90;99.90;;;;;;5033206;28;19990;-69
2023/04/07 09:49:51;;;;;;;;;;;8.90;99.90;;;;;;5015199;28;20019;-72
2023/04/07 09:52:19;;;;;;;;;;;9.00;99.90;;;;;;5031617;28;19921;-72
2023/04/07 09:54:45;;;;;;;;;;;9.10;99.90;;;;;;5015160;28;19920;-72
2023/04/07 09:57:12;;;;;;;;;;;10.30;99.90;;;;;;5015267;28;20017;-72
2023/04/07 09:59:44;;;;;;;;;;;9.30;99.90;;;;;;5033637;28;19925;-72
2023/04/07 10:02:12;;;;;;;;;;;9.40;99.90;;;;;;5030021;28;19928;-72
2023/04/07 10:04:38;;;;;;;;;;;9.50;99.90;;;;;;5033486;28;19917;-72
2023/04/07 10:07:05;;;;;;;;;;;9.60;99.90;;;;;;5013558;28;19921;-72
2023/04/07 10:09:30;;;;;;;;;;;9.70;99.90;;;;;;4999463;28;19921;-72
2023/04/07 10:11:57;;;;;;;;;;;9.00;99.90;;;;;;5012083;28;20007;-72
2023/04/07 10:14:45;;;;;;;;;;;9.80;99.90;;;;;;4995425;28;20363;-72
2023/04/07 10:17:17;;;;;;;;;;;9.90;99.90;;;;;;5011987;28;20001;-72
2023/04/07 10:19:43;;;;;;;;;;;9.80;99.90;;;;;;4994339;28;19971;-69
2023/04/07 10:22:09;;;;;;;;;;;9.80;99.90;;;;;;5013935;28;20405;-71
2023/04/07 10:24:41;;;;;;;;;;;9.80;99.90;;;;;;4996287;28;19928;-71
2023/04/07 10:27:10;;;;;;;;;;;9.90;99.90;;;;;;4996907;28;19922;-71
2023/04/07 10:29:43;;;;;;;;;;;9.90;99.90;;;;;;5012383;28;19924;-72
2023/04/07 10:32:09;;;;;;;;;;;10.00;99.90;;;;;;5032695;28;20399;-71
2023/04/07 10:34:53;;;;;;;;;;;10.00;99.90;;;;;;5032972;28;19980;-71
2023/04/07 10:37:21;;;;;;;;;;;10.00;99.90;;;;;;5015459;28;20385;-71
2023/04/07 10:40:09;;;;;;;;;;;10.00;99.90;;;;;;5015659;28;19928;-71
2023/04/07 10:42:38;;;;;;;;;;;9.90;99.90;;;;;;5031907;28;19928;-71
2023/04/07 10:45:08;;;;;;;;;;;9.90;99.90;;;;;;5032899;28;19921;-71
2023/04/07 10:47:52;;;;;;;;;;;9.90;99.90;;;;;;5021909;28;19929;-71
2023/04/07 10:50:19;;;;;;;;;;;10.00;99.90;;;;;;5013444;28;20008;-71
2023/04/07 10:52:48;;;;;;;;;;;10.40;99.90;;;;;;5013009;28;19928;-70
2023/04/07 10:55:34;;;;;;;;;;;9.90;99.90;;;;;;4994974;28;19928;-71
2023/04/07 10:58:15;;;;;;;;;;;9.90;99.90;;;;;;5013529;28;20012;-70
2023/04/07 11:00:42;;;;;;;;;;;10.00;99.90;;;;;;5012734;28;19922;-71
2023/04/07 11:03:14;;;;;;;;;;;10.10;99.90;;;;;;4995024;28;19921;-71
2023/04/07 11:05:40;;;;;;;;;;;10.10;99.90;;;;;;5013280;28;19925;-71
2023/04/07 11:08:06;;;;;;;;;;;10.20;99.90;;;;;;5027154;28;19921;-71
2023/04/07 11:10:32;;;;;;;;;;;10.30;99.90;;;;;;5033169;28;19924;-71
2023/04/07 11:13:05;;;;;;;;;;;10.50;99.90;;;;;;5014683;28;19928;-71
2023/04/07 11:15:32;;;;;;;;;;;10.70;99.90;;;;;;5031674;28;19928;-71
2023/04/07 11:18:18;;;;;;;;;;;10.70;99.90;;;;;;5013391;28;19960;-71
2023/04/07 11:20:43;;;;;;;;;;;10.60;99.90;;;;;;5015425;28;20359;-71
2023/04/07 11:23:09;;;;;;;;;;;11.10;99.90;;;;;;5032215;28;20012;-71
2023/04/07 11:25:38;;;;;;;;;;;11.00;99.90;;;;;;5033383;28;19927;-71
2023/04/07 11:28:04;;;;;;;;;;;11.20;99.90;;;;;;5002527;28;19924;-71
2023/04/07 11:30:33;;;;;;;;;;;11.20;99.90;;;;;;4994911;28;19921;-72
2023/04/07 11:32:59;;;;;;;;;;;11.20;99.90;;;;;;5012432;28;19921;-72
2023/04/07 11:35:25;;;;;;;;;;;11.30;99.90;;;;;;5013186;28;19956;-70
2023/04/07 11:37:56;;;;;;;;;;;11.70;99.90;;;;;;5001115;28;19999;-78
2023/04/07 11:40:33;;;;;;;;;;;11.90;99.90;;;;;;4999431;28;19921;-72
2023/04/07 11:43:00;;;;;;;;;;;11.80;99.90;;;;;;5018149;28;20008;-72
2023/04/07 11:45:25;;;;;;;;;;;11.70;99.90;;;;;;5014510;28;19929;-74
2023/04/07 11:47:51;;;;;;;;;;;11.70;99.90;;;;;;5013781;28;19921;-76
2023/04/07 11:50:36;;;;;;;;;;;11.80;99.90;;;;;;5020098;28;20012;-74
2023/04/07 11:53:01;;;;;;;;;;;11.70;99.90;;;;;;5012140;28;19976;-73
2023/04/07 11:55:28;;;;;;;;;;;11.50;99.90;;;;;;5044466;28;20319;-75
2023/04/07 11:57:54;;;;;;;;;;;11.50;99.90;;;;;;4999251;28;19928;-74
2023/04/07 12:00:19;;;;;;;;;;;11.50;99.90;;;;;;5023479;28;19925;-74
2023/04/07 12:02:45;;;;;;;;;;;11.50;99.90;;;;;;5016092;28;19960;-75
2023/04/07 12:05:11;;;;;;;;;;;11.60;99.90;;;;;;5005677;28;20426;-76
2023/04/07 12:07:38;;;;;;;;;;;11.30;99.90;;;;;;5021667;28;19921;-75
2023/04/07 12:10:19;;;;;;;;;;;11.60;99.90;;;;;;5017993;28;20637;-75
2023/04/07 12:12:47;;;;;;;;;;;11.60;99.90;;;;;;5016524;28;19929;-72
2023/04/07 12:15:13;;;;;;;;;;;11.80;99.90;;;;;;5006914;28;19999;-73
2023/04/07 12:17:46;;;;;;;;;;;11.90;99.90;;;;;;4994859;28;19968;-72
2023/04/07 12:20:12;;;;;;;;;;;11.80;99.90;;;;;;5004854;28;20008;-75
2023/04/07 12:22:37;;;;;;;;;;;11.60;99.90;;;;;;4994457;28;21194;-73
2023/04/07 12:25:03;;;;;;;;;;;11.60;99.90;;;;;;5020615;28;19975;-72
2023/04/07 12:27:29;;;;;;;;;;;11.50;99.90;;;;;;5019073;28;19974;-73
2023/04/07 12:29:54;;;;;;;;;;;11.50;99.90;;;;;;5005477;28;20266;-73
2023/04/07 12:32:20;;;;;;;;;;;11.40;99.90;;;;;;5016112;28;19929;-71
2023/04/07 12:34:46;;;;;;;;;;;11.40;99.90;;;;;;5024898;28;19925;-71
2023/04/07 12:37:12;;;;;;;;;;;11.40;99.90;;;;;;5032687;28;19923;-72
2023/04/07 12:39:38;;;;;;;;;;;11.20;99.90;;;;;;5011640;28;19921;-70
2023/04/07 12:42:04;;;;;;;;;;;11.30;99.90;;;;;;5030852;28;19925;-72
2023/04/07 12:44:29;;;;;;;;;;;11.20;99.90;;;;;;4997621;28;20800;-71
2023/04/07 12:46:55;;;;;;;;;;;11.20;99.90;;;;;;5020282;28;19984;-73
2023/04/07 12:49:21;;;;;;;;;;;11.10;99.90;;;;;;5015300;28;19921;-72
2023/04/07 12:51:46;;;;;;;;;;;11.10;99.90;;;;;;5021919;28;19944;-72
2023/04/07 12:54:12;;;;;;;;;;;11.00;99.90;;;;;;5017710;28;20431;-71
2023/04/07 12:56:39;;;;;;;;;;;11.00;99.90;;;;;;5022960;28;19963;-74
2023/04/07 12:59:04;;;;;;;;;;;11.00;99.90;;;;;;5030592;28;19921;-75
2023/04/07 13:01:30;;;;;;;;;;;10.90;99.90;;;;;;5031060;28;19932;-71
2023/04/07 13:03:55;;;;;;;;;;;10.80;99.90;;;;;;5038711;28;19968;-71
2023/04/07 13:06:22;;;;;;;;;;;10.90;99.90;;;;;;5021922;28;20372;-72
2023/04/07 13:08:50;;;;;;;;;;;10.90;99.90;;;;;;5018722;28;19948;-68
2023/04/07 13:11:16;;;;;;;;;;;10.90;99.90;;;;;;5004240;28;19921;-70
2023/04/07 13:13:41;;;;;;;;;;;10.90;99.90;;;;;;5020134;28;19922;-70
2023/04/07 13:16:07;;;;;;;;;;;10.90;99.90;;;;;;5021022;28;20071;-70
2023/04/07 13:18:32;;;;;;;;;;;11.00;99.90;;;;;;5022862;28;20022;-71
2023/04/07 13:20:58;;;;;;;;;;;11.00;99.90;;;;;;5019458;28;19960;-71
2023/04/07 13:23:24;;;;;;;;;;;11.00;99.90;;;;;;5039688;28;19975;-71
2023/04/07 13:25:49;;;;;;;;;;;10.90;99.90;;;;;;5023606;28;19925;-71
2023/04/07 13:28:19;;;;;;;;;;;11.00;99.90;;;;;;5035573;28;19921;-71
2023/04/07 13:30:45;;;;;;;;;;;11.00;99.90;;;;;;5016060;28;19967;-71
2023/04/07 13:33:11;;;;;;;;;;;11.10;99.90;;;;;;5032966;28;19964;-71
2023/04/07 13:35:36;;;;;;;;;;;11.00;99.90;;;;;;5017961;28;19921;-71
2023/04/07 13:38:02;;;;;;;;;;;11.00;99.90;;;;;;5011268;28;19965;-71
2023/04/07 13:40:28;;;;;;;;;;;11.10;99.90;;;;;;5010264;28;20424;-71
2023/04/07 13:42:54;;;;;;;;;;;11.10;99.90;;;;;;5012641;28;20176;-71
2023/04/07 13:45:19;;;;;;;;;;;11.10;99.90;;;;;;5030784;28;20118;-71
2023/04/07 13:47:45;;;;;;;;;;;11.00;99.90;;;;;;5031600;28;20191;-71
2023/04/07 13:50:11;;;;;;;;;;;11.10;99.90;;;;;;5019877;28;19944;-71
2023/04/07 13:52:36;;;;;;;;;;;11.20;99.90;;;;;;4997229;28;19921;-71
2023/04/07 13:55:04;;;;;;;;;;;11.40;99.90;;;;;;5033007;28;19944;-72
2023/04/07 13:57:30;;;;;;;;;;;11.40;99.90;;;;;;5016493;28;20379;-71
2023/04/07 13:59:55;;;;;;;;;;;11.40;99.90;;;;;;5016358;28;19921;-71
2023/04/07 14:02:21;;;;;;;;;;;11.50;99.90;;;;;;5015067;28;19925;-71
2023/04/07 14:04:47;;;;;;;;;;;11.50;99.90;;;;;;4996760;28;19933;-72
2023/04/07 14:07:12;;;;;;;;;;;11.60;99.90;;;;;;4996604;28;20481;-73
2023/04/07 14:09:38;;;;;;;;;;;11.80;99.90;;;;;;4996817;28;19921;-72
2023/04/07 14:12:03;;;;;;;;;;;11.80;99.90;;;;;;5016485;28;20346;-71
2023/04/07 14:14:29;;;;;;;;;;;11.80;99.90;;;;;;5016279;28;19925;-71
2023/04/07 14:16:55;;;;;;;;;;;11.80;99.90;;;;;;5033335;28;19921;-72
2023/04/07 14:19:22;;;;;;;;;;;11.80;99.90;;;;;;5015911;28;20352;-71
2023/04/07 14:21:54;;;;;;;;;;;11.90;99.90;;;;;;5005097;28;19921;-71
2023/04/07 14:24:19;;;;;;;;;;;11.80;99.90;;;;;;5014339;28;19972;-72
2023/04/07 14:26:45;;;;;;;;;;;11.80;99.90;;;;;;4996122;28;19957;-72